createdAt,value
2022-07-25T00:01:44.645Z,99.90
2022-07-25T00:04:14.741Z,99.90
2022-07-25T00:06:43.865Z,99.90
2022-07-25T00:09:11.785Z,99.90
2022-07-25T00:11:39.850Z,99.90
2022-07-25T00:14:08.553Z,99.90
2022-07-25T00:16:36.626Z,99.90
2022-07-25T00:19:04.729Z,99.90
2022-07-25T00:21:33.420Z,99.90
2022-07-25T00:24:01.537Z,99.90
2022-07-25T00:26:30.956Z,99.90
2022-07-25T00:28:59.226Z,99.90
2022-07-25T00:31:29.971Z,99.90
2022-07-25T00:33:58.509Z,99.90
2022-07-25T00:36:27.238Z,99.90
2022-07-25T00:38:57.446Z,99.90
2022-07-25T00:41:25.556Z,99.90
2022-07-25T00:43:53.363Z,99.90
2022-07-25T00:46:22.760Z,99.90
2022-07-25T00:48:52.327Z,99.90
2022-07-25T00:51:20.634Z,99.90
2022-07-25T00:53:51.228Z,99.90
2022-07-25T00:56:22.008Z,99.90
2022-07-25T00:58:50.301Z,99.90
2022-07-25T01:01:18.357Z,99.90
2022-07-25T01:03:48.765Z,99.90
2022-07-25T01:06:16.765Z,99.90
2022-07-25T01:08:45.191Z,99.90
2022-07-25T01:11:13.339Z,99.90
2022-07-25T01:13:41.572Z,99.90
2022-07-25T01:16:09.419Z,99.90
2022-07-25T01:18:38.477Z,99.90
2022-07-25T01:21:06.696Z,99.90
2022-07-25T01:23:35.087Z,99.90
2022-07-25T01:26:03.879Z,99.90
2022-07-25T01:28:31.776Z,99.90
2022-07-25T01:30:59.983Z,99.90
2022-07-25T01:33:28.134Z,99.90
2022-07-25T01:35:56.355Z,99.90
2022-07-25T01:38:24.263Z,99.90
2022-07-25T01:40:52.271Z,99.90
2022-07-25T01:43:20.995Z,99.90
2022-07-25T01:45:48.956Z,99.90
2022-07-25T01:48:17.012Z,99.90
2022-07-25T01:50:47.849Z,99.90
2022-07-25T01:53:17.388Z,99.90
2022-07-25T01:55:46.284Z,99.90
2022-07-25T01:58:14.549Z,99.90
2022-07-25T02:00:43.949Z,99.90
2022-07-25T02:03:30.062Z,99.90
2022-07-25T02:06:04.777Z,99.90
2022-07-25T02:08:34.099Z,99.90
2022-07-25T02:11:01.852Z,99.90
2022-07-25T02:13:30.139Z,99.90
2022-07-25T02:15:58.564Z,99.90
2022-07-25T02:18:26.917Z,99.90
2022-07-25T02:20:54.655Z,99.90
2022-07-25T02:23:25.685Z,99.90
2022-07-25T02:25:53.559Z,99.90
2022-07-25T02:28:21.854Z,99.90
2022-07-25T02:30:50.251Z,99.90
2022-07-25T02:33:18.670Z,99.90
2022-07-25T02:35:46.508Z,99.90
2022-07-25T02:38:20.093Z,99.90
2022-07-25T02:40:53.308Z,99.90
2022-07-25T02:43:21.780Z,99.90
2022-07-25T02:45:54.263Z,99.90
2022-07-25T02:48:23.015Z,99.90
2022-07-25T02:50:50.847Z,99.90
2022-07-25T02:53:39.937Z,99.90
2022-07-25T02:56:08.267Z,99.90
2022-07-25T02:58:36.133Z,99.90
2022-07-25T03:01:07.345Z,99.90
2022-07-25T03:03:36.516Z,99.90
2022-07-25T03:06:05.541Z,99.90
2022-07-25T03:08:35.491Z,99.90
2022-07-25T03:11:06.299Z,99.90
2022-07-25T03:13:34.146Z,99.90
2022-07-25T03:16:02.348Z,99.90
2022-07-25T03:18:32.487Z,99.90
2022-07-25T03:21:00.874Z,99.90
2022-07-25T03:23:29.218Z,99.90
2022-07-25T03:25:57.579Z,99.90
2022-07-25T03:28:25.893Z,99.90
2022-07-25T03:30:54.623Z,99.90
2022-07-25T03:33:24.797Z,99.90
2022-07-25T03:35:52.593Z,99.90
2022-07-25T03:38:20.683Z,99.90
2022-07-25T03:40:49.167Z,99.90
2022-07-25T03:43:17.007Z,99.90
2022-07-25T03:45:45.388Z,99.90
2022-07-25T03:48:14.776Z,99.90
2022-07-25T03:50:43.072Z,99.90
2022-07-25T03:53:12.649Z,99.90
2022-07-25T03:55:42.256Z,99.90
2022-07-25T03:58:10.046Z,99.90
2022-07-25T04:00:37.840Z,99.90
2022-07-25T04:03:07.933Z,99.90
2022-07-25T04:05:35.675Z,99.90
2022-07-25T04:08:04.091Z,99.90
2022-07-25T04:10:33.279Z,99.90
2022-07-25T04:13:01.700Z,99.90
2022-07-25T04:15:29.421Z,99.90
2022-07-25T04:17:59.048Z,99.90
2022-07-25T04:20:28.449Z,99.90
2022-07-25T04:22:57.540Z,99.90
2022-07-25T04:25:25.759Z,99.90
2022-07-25T04:27:55.757Z,99.90
2022-07-25T04:30:24.995Z,99.90
2022-07-25T04:32:53.573Z,99.90
2022-07-25T04:35:22.468Z,99.90
2022-07-25T04:37:50.572Z,99.90
2022-07-25T04:40:19.074Z,99.90
2022-07-25T04:42:47.489Z,99.90
2022-07-25T04:45:17.891Z,99.90
2022-07-25T04:47:46.580Z,99.90
2022-07-25T04:50:15.434Z,99.90
2022-07-25T04:52:43.774Z,99.90
2022-07-25T04:55:12.659Z,99.90
2022-07-25T04:57:41.699Z,99.90
2022-07-25T05:00:11.565Z,99.90
2022-07-25T05:02:40.636Z,99.90
2022-07-25T05:05:20.836Z,99.90
2022-07-25T05:07:56.144Z,99.90
2022-07-25T05:10:25.596Z,99.90
2022-07-25T05:12:54.318Z,99.90
2022-07-25T05:15:22.304Z,99.90
2022-07-25T05:17:50.084Z,99.90
2022-07-25T05:20:18.627Z,99.90
2022-07-25T05:22:47.170Z,99.90
2022-07-25T05:25:16.380Z,99.90
2022-07-25T05:27:45.837Z,99.90
2022-07-25T05:30:16.662Z,99.90
2022-07-25T05:32:44.567Z,99.90
2022-07-25T05:35:12.703Z,99.90
2022-07-25T05:37:42.144Z,99.90
2022-07-25T05:40:10.674Z,99.90
2022-07-25T05:42:38.794Z,99.90
2022-07-25T05:45:07.260Z,99.90
2022-07-25T05:47:35.859Z,99.90
2022-07-25T05:50:04.499Z,99.90
2022-07-25T05:52:32.314Z,99.90
2022-07-25T05:55:00.057Z,99.90
2022-07-25T05:57:28.598Z,99.90
2022-07-25T05:59:57.031Z,99.90
2022-07-25T06:02:25.000Z,99.90
2022-07-25T06:04:53.588Z,99.90
2022-07-25T06:07:21.893Z,99.90
2022-07-25T06:09:49.626Z,99.90
2022-07-25T06:12:17.946Z,99.90
2022-07-25T06:14:45.779Z,99.90
2022-07-25T06:17:14.747Z,99.90
2022-07-25T06:19:43.271Z,99.90
2022-07-25T06:22:12.209Z,99.90
2022-07-25T06:24:42.796Z,99.90
2022-07-25T06:27:11.503Z,99.90
2022-07-25T06:29:39.425Z,99.90
2022-07-25T06:32:08.014Z,99.90
2022-07-25T06:34:35.987Z,99.90
2022-07-25T06:37:06.178Z,99.90
2022-07-25T06:39:33.944Z,99.90
2022-07-25T06:42:04.080Z,99.90
2022-07-25T06:44:35.970Z,99.90
2022-07-25T06:47:12.572Z,99.90
2022-07-25T06:49:42.147Z,99.90
2022-07-25T06:52:11.665Z,99.90
2022-07-25T06:54:40.088Z,99.90
2022-07-25T06:57:09.029Z,99.90
2022-07-25T06:59:37.997Z,99.90
2022-07-25T07:02:06.395Z,99.90
2022-07-25T07:04:37.260Z,99.90
2022-07-25T07:07:05.324Z,99.90
2022-07-25T07:09:33.793Z,99.90
2022-07-25T07:12:01.732Z,99.90
2022-07-25T07:14:29.896Z,99.90
2022-07-25T07:16:58.530Z,99.90
2022-07-25T07:19:29.282Z,99.90
2022-07-25T07:21:57.731Z,99.90
2022-07-25T07:24:26.671Z,99.90
2022-07-25T07:26:55.052Z,99.90
2022-07-25T07:29:23.581Z,99.90
2022-07-25T07:31:52.144Z,99.90
2022-07-25T07:34:22.663Z,99.90
2022-07-25T07:36:51.268Z,99.90
2022-07-25T07:39:19.022Z,99.90
2022-07-25T07:41:47.713Z,99.90
2022-07-25T07:44:16.716Z,99.90
2022-07-25T07:46:45.738Z,99.90
2022-07-25T07:49:13.587Z,99.90
2022-07-25T07:51:41.604Z,99.90
2022-07-25T07:54:28.120Z,99.90
2022-07-25T07:56:58.796Z,99.90
2022-07-25T07:59:26.736Z,99.90
2022-07-25T08:01:55.143Z,99.90
2022-07-25T08:04:23.353Z,99.90
2022-07-25T08:06:51.159Z,99.90
2022-07-25T08:09:19.710Z,99.90
2022-07-25T08:11:48.208Z,99.90
2022-07-25T08:14:15.976Z,99.90
2022-07-25T08:16:44.311Z,99.90
2022-07-25T08:19:13.337Z,99.90
2022-07-25T08:21:46.850Z,99.90
2022-07-25T08:24:15.571Z,99.90
2022-07-25T08:26:43.883Z,99.90
2022-07-25T08:29:19.689Z,99.90
2022-07-25T08:31:49.515Z,99.90
2022-07-25T08:34:17.659Z,99.90
2022-07-25T08:36:47.917Z,99.90
2022-07-25T08:39:16.011Z,99.90
2022-07-25T08:41:46.591Z,99.00
2022-07-25T08:44:17.414Z,97.90
2022-07-25T08:46:46.487Z,96.90
2022-07-25T08:49:15.794Z,96.20
2022-07-25T08:51:43.780Z,96.30
2022-07-25T08:54:11.938Z,96.60
2022-07-25T08:56:42.100Z,97.30
2022-07-25T08:59:10.466Z,98.00
2022-07-25T09:01:41.091Z,99.10
2022-07-25T09:04:10.878Z,99.90
2022-07-25T09:06:50.591Z,99.90
2022-07-25T09:09:19.351Z,99.90
2022-07-25T09:11:47.576Z,99.90
2022-07-25T09:14:15.866Z,99.90
2022-07-25T09:16:45.147Z,99.90
2022-07-25T09:19:19.514Z,99.90
2022-07-25T09:22:10.343Z,99.90
2022-07-25T09:24:45.468Z,99.90
2022-07-25T09:27:13.921Z,99.90
2022-07-25T09:29:45.449Z,99.90
2022-07-25T09:32:22.141Z,99.90
2022-07-25T09:34:51.858Z,99.90
2022-07-25T09:37:26.436Z,99.90
2022-07-25T09:39:57.702Z,99.90
2022-07-25T09:42:34.214Z,99.90
2022-07-25T09:45:15.076Z,99.90
2022-07-25T09:47:54.876Z,99.90
2022-07-25T09:50:25.288Z,99.90
2022-07-25T09:52:55.968Z,99.90
2022-07-25T09:55:25.308Z,99.90
2022-07-25T09:57:53.219Z,99.90
2022-07-25T10:00:27.086Z,99.90
2022-07-25T10:02:55.615Z,99.90
2022-07-25T10:05:58.399Z,99.90
2022-07-25T10:10:56.348Z,99.90
2022-07-25T10:13:34.762Z,99.90
2022-07-25T10:16:03.019Z,99.90
2022-07-25T10:18:32.133Z,99.90
2022-07-25T10:21:26.142Z,99.10
2022-07-25T10:23:59.064Z,97.60
2022-07-25T10:26:27.069Z,96.00
2022-07-25T10:28:58.088Z,95.40
2022-07-25T10:31:34.206Z,94.20
2022-07-25T10:34:07.868Z,93.40
2022-07-25T10:36:49.404Z,92.90
2022-07-25T10:39:19.105Z,91.50
2022-07-25T10:41:53.625Z,90.50
2022-07-25T10:44:21.802Z,90.60
2022-07-25T10:46:50.841Z,91.00
2022-07-25T10:49:23.582Z,90.80
2022-07-25T10:52:00.308Z,90.40
2022-07-25T10:54:36.967Z,88.10
2022-07-25T10:57:09.753Z,86.90
2022-07-25T10:59:40.063Z,86.40
2022-07-25T11:02:16.500Z,84.20
2022-07-25T11:04:57.699Z,83.00
2022-07-25T11:07:28.697Z,81.70
2022-07-25T11:10:01.491Z,81.30
2022-07-25T11:12:30.091Z,80.80
2022-07-25T11:15:04.363Z,79.90
2022-07-25T11:17:32.644Z,79.90
2022-07-25T11:20:07.231Z,79.50
2022-07-25T11:22:35.784Z,79.30
2022-07-25T11:25:12.864Z,81.40
2022-07-25T11:27:41.744Z,87.00
2022-07-25T11:30:16.323Z,90.70
2022-07-25T11:32:51.187Z,91.50
2022-07-25T11:35:22.729Z,91.30
2022-07-25T11:37:52.238Z,91.40
2022-07-25T11:40:22.513Z,91.40
2022-07-25T11:42:53.635Z,91.70
2022-07-25T11:45:30.123Z,93.00
2022-07-25T11:48:08.952Z,94.80
2022-07-25T11:50:44.862Z,96.90
2022-07-25T11:53:15.750Z,99.30
2022-07-25T11:55:45.303Z,99.90
2022-07-25T11:58:14.274Z,99.90
2022-07-25T12:00:45.275Z,99.90
2022-07-25T12:03:20.408Z,99.90
2022-07-25T12:05:49.787Z,99.90
2022-07-25T12:08:23.183Z,99.90
2022-07-25T12:10:55.721Z,99.90
2022-07-25T12:13:26.246Z,99.90
2022-07-25T12:15:55.780Z,99.60
2022-07-25T12:18:23.672Z,99.20
2022-07-25T12:20:53.047Z,99.90
2022-07-25T12:23:22.051Z,99.90
2022-07-25T12:25:50.265Z,99.90
2022-07-25T12:28:18.613Z,99.90
2022-07-25T12:30:49.513Z,99.90
2022-07-25T12:33:20.302Z,99.90
2022-07-25T12:35:48.872Z,99.90
2022-07-25T12:38:17.559Z,99.90
2022-07-25T12:40:47.321Z,99.90
2022-07-25T12:43:15.635Z,99.90
2022-07-25T12:45:43.821Z,99.90
2022-07-25T12:48:13.876Z,99.90
2022-07-25T12:50:42.849Z,99.90
2022-07-25T12:53:11.414Z,99.90
2022-07-25T12:55:40.533Z,99.90
2022-07-25T12:58:09.122Z,99.90
2022-07-25T13:00:36.995Z,99.90
2022-07-25T13:03:05.112Z,99.80
2022-07-25T13:05:32.988Z,99.10
2022-07-25T13:08:03.545Z,97.40
2022-07-25T13:10:31.627Z,96.70
2022-07-25T13:13:02.379Z,96.30
2022-07-25T13:15:31.049Z,95.30
2022-07-25T13:18:00.089Z,92.80
2022-07-25T13:20:31.318Z,91.60
2022-07-25T13:23:03.197Z,90.60
2022-07-25T13:25:32.862Z,90.30
2022-07-25T13:28:03.629Z,90.20
2022-07-25T13:30:42.024Z,90.10
2022-07-25T13:33:10.703Z,89.20
2022-07-25T13:35:39.796Z,86.40
2022-07-25T13:38:10.996Z,83.70
2022-07-25T13:40:43.768Z,81.80
2022-07-25T13:43:13.617Z,80.30
2022-07-25T13:45:42.895Z,79.30
2022-07-25T13:48:28.836Z,79.00
2022-07-25T13:50:59.707Z,76.00
2022-07-25T13:53:30.218Z,74.20
2022-07-25T13:55:59.637Z,72.50
2022-07-25T13:58:28.435Z,69.70
2022-07-25T14:00:56.593Z,66.70
2022-07-25T14:03:24.636Z,65.50
2022-07-25T14:05:52.527Z,65.80
2022-07-25T14:08:21.155Z,65.40
2022-07-25T14:10:50.237Z,65.30
2022-07-25T14:13:18.701Z,64.90
2022-07-25T14:15:46.552Z,65.10
2022-07-25T14:18:15.334Z,65.60
2022-07-25T14:20:44.074Z,67.00
2022-07-25T14:23:12.065Z,68.10
2022-07-25T14:25:41.408Z,68.80
2022-07-25T14:28:10.217Z,69.40
2022-07-25T14:30:38.456Z,69.80
2022-07-25T14:33:07.044Z,70.30
2022-07-25T14:35:35.690Z,70.80
2022-07-25T14:38:06.136Z,71.10
2022-07-25T14:40:37.621Z,72.20
2022-07-25T14:43:05.984Z,71.70
2022-07-25T14:45:34.257Z,71.00
2022-07-25T14:48:03.314Z,68.70
2022-07-25T14:50:32.224Z,68.00
2022-07-25T14:53:00.146Z,66.90
2022-07-25T14:55:28.662Z,66.10
2022-07-25T14:57:57.968Z,65.90
2022-07-25T15:00:29.479Z,65.80
2022-07-25T15:02:58.937Z,65.80
2022-07-25T15:05:26.750Z,66.10
2022-07-25T15:07:55.321Z,66.80
2022-07-25T15:10:23.834Z,65.70
2022-07-25T15:13:13.617Z,66.10
2022-07-25T15:15:41.280Z,66.10
2022-07-25T15:18:13.820Z,66.20
2022-07-25T15:20:42.766Z,66.40
2022-07-25T15:23:10.581Z,66.60
2022-07-25T15:26:01.046Z,66.80
2022-07-25T15:28:28.050Z,66.40
2022-07-25T15:30:56.494Z,66.60
2022-07-25T15:33:24.785Z,66.80
2022-07-25T15:35:52.907Z,67.00
2022-07-25T15:38:21.019Z,66.80
2022-07-25T15:40:49.778Z,67.20
2022-07-25T15:43:18.235Z,67.90
2022-07-25T15:45:47.395Z,69.30
2022-07-25T15:48:17.161Z,69.40
2022-07-25T15:50:48.262Z,70.20
2022-07-25T15:53:19.967Z,71.10
2022-07-25T15:55:50.513Z,72.10
2022-07-25T15:58:19.663Z,73.10
2022-07-25T16:00:47.888Z,74.00
2022-07-25T16:03:17.054Z,75.00
2022-07-25T16:05:45.156Z,75.90
2022-07-25T16:08:13.350Z,76.90
2022-07-25T16:10:41.872Z,77.90
2022-07-25T16:13:10.154Z,78.40
2022-07-25T16:15:39.458Z,78.40
2022-07-25T16:18:07.568Z,77.90
2022-07-25T16:20:35.846Z,77.50
2022-07-25T16:23:03.636Z,77.20
2022-07-25T16:25:31.614Z,77.10
2022-07-25T16:28:00.428Z,77.00
2022-07-25T16:30:28.424Z,76.60
2022-07-25T16:32:56.942Z,76.30
2022-07-25T16:35:28.160Z,76.20
2022-07-25T16:37:58.462Z,76.20
2022-07-25T16:40:30.701Z,76.40
2022-07-25T16:42:59.824Z,76.90
2022-07-25T16:45:28.438Z,77.00
2022-07-25T16:47:56.392Z,77.20
2022-07-25T16:50:24.866Z,77.70
2022-07-25T16:52:53.769Z,78.50
2022-07-25T16:55:22.145Z,79.10
2022-07-25T16:57:53.818Z,79.80
2022-07-25T17:00:21.798Z,81.40
2022-07-25T17:02:49.841Z,83.90
2022-07-25T17:05:20.140Z,86.50
2022-07-25T17:07:54.562Z,88.40
2022-07-25T17:10:27.881Z,89.70
2022-07-25T17:12:56.409Z,90.00
2022-07-25T17:15:25.298Z,90.20
2022-07-25T17:17:54.286Z,89.50
2022-07-25T17:20:23.089Z,89.50
2022-07-25T17:22:52.011Z,89.40
2022-07-25T17:25:23.019Z,88.80
2022-07-25T17:27:51.765Z,88.30
2022-07-25T17:30:19.581Z,88.50
2022-07-25T17:32:48.157Z,88.80
2022-07-25T17:35:16.426Z,89.50
2022-07-25T17:37:47.155Z,90.00
2022-07-25T17:40:15.828Z,90.40
2022-07-25T17:42:45.582Z,90.80
2022-07-25T17:45:15.203Z,91.30
2022-07-25T17:47:44.554Z,91.90
2022-07-25T17:50:13.207Z,92.80
2022-07-25T17:52:41.974Z,92.90
2022-07-25T17:55:12.022Z,93.40
2022-07-25T17:57:42.192Z,93.90
2022-07-25T18:00:15.651Z,94.30
2022-07-25T18:02:43.685Z,94.80
2022-07-25T18:05:12.119Z,95.30
2022-07-25T18:07:45.192Z,95.90
2022-07-25T18:10:13.899Z,97.00
2022-07-25T18:12:55.395Z,98.90
2022-07-25T18:15:23.525Z,99.90
2022-07-25T18:17:52.884Z,99.90
2022-07-25T18:20:26.621Z,99.90
2022-07-25T18:22:55.587Z,99.10
2022-07-25T18:25:23.414Z,96.80
2022-07-25T18:27:52.833Z,94.90
2022-07-25T18:30:25.890Z,92.40
2022-07-25T18:32:59.778Z,91.00
2022-07-25T18:35:32.121Z,90.00
2022-07-25T18:38:01.249Z,89.30
2022-07-25T18:40:29.279Z,89.60
2022-07-25T18:42:57.745Z,90.00
2022-07-25T18:45:25.603Z,90.30
2022-07-25T18:47:54.918Z,90.60
2022-07-25T18:50:25.513Z,91.00
2022-07-25T18:52:53.404Z,91.60
2022-07-25T18:57:17.938Z,92.60
2022-07-25T18:59:46.774Z,93.40
2022-07-25T19:02:15.601Z,93.80
2022-07-25T19:04:43.600Z,94.30
2022-07-25T19:07:12.803Z,94.70
2022-07-25T19:09:41.188Z,95.00
2022-07-25T19:12:10.316Z,95.40
2022-07-25T19:14:38.852Z,95.70
2022-07-25T19:17:07.185Z,96.00
2022-07-25T19:19:36.068Z,96.20
2022-07-25T19:22:04.103Z,96.40
2022-07-25T19:24:34.248Z,96.70
2022-07-25T19:27:05.073Z,96.90
2022-07-25T19:29:33.119Z,97.30
2022-07-25T19:32:04.385Z,97.50
2022-07-25T19:34:32.825Z,97.60
2022-07-25T19:37:01.685Z,97.80
2022-07-25T19:39:30.084Z,98.00
2022-07-25T19:42:00.327Z,98.00
2022-07-25T19:44:28.436Z,98.00
2022-07-25T19:46:57.116Z,98.00
2022-07-25T19:49:25.509Z,98.00
2022-07-25T19:51:53.527Z,97.90
2022-07-25T19:54:24.135Z,97.80
2022-07-25T19:56:52.515Z,97.50
2022-07-25T19:59:21.079Z,97.50
2022-07-25T20:01:50.416Z,97.20
2022-07-25T20:04:18.903Z,96.60
2022-07-25T20:06:48.788Z,96.30
2022-07-25T20:09:17.674Z,96.20
2022-07-25T20:11:48.664Z,96.10
2022-07-25T20:14:17.742Z,96.20
2022-07-25T20:16:46.058Z,96.20
2022-07-25T20:19:13.889Z,96.40
2022-07-25T20:21:42.047Z,96.60
2022-07-25T20:24:12.480Z,97.00
2022-07-25T20:26:40.977Z,97.30
2022-07-25T20:29:10.029Z,97.70
2022-07-25T20:31:38.658Z,98.00
2022-07-25T20:34:06.415Z,98.40
2022-07-25T20:36:34.510Z,98.70
2022-07-25T20:39:02.259Z,99.00
2022-07-25T20:43:51.546Z,99.20
2022-07-25T20:46:19.752Z,99.70
2022-07-25T20:48:48.237Z,99.80
2022-07-25T20:51:16.543Z,99.90
2022-07-25T20:53:45.017Z,99.90
2022-07-25T20:56:21.059Z,99.90
2022-07-25T20:58:48.972Z,99.90
2022-07-25T21:01:17.567Z,99.90
2022-07-25T21:03:45.923Z,99.90
2022-07-25T21:06:13.919Z,99.90
2022-07-25T21:08:44.409Z,99.90
2022-07-25T21:11:12.806Z,99.90
2022-07-25T21:13:41.444Z,99.90
2022-07-25T21:16:09.395Z,99.90
2022-07-25T21:18:37.260Z,99.90
2022-07-25T21:21:07.723Z,99.90
2022-07-25T21:23:38.917Z,99.90
2022-07-25T21:26:07.446Z,99.90
2022-07-25T21:28:35.664Z,99.90
2022-07-25T21:31:03.761Z,99.90
2022-07-25T21:33:32.593Z,99.90
2022-07-25T21:36:03.222Z,99.90
2022-07-25T21:38:34.739Z,99.90
2022-07-25T21:41:07.146Z,99.90
2022-07-25T21:43:34.842Z,99.90
2022-07-25T21:46:05.919Z,99.90
2022-07-25T21:48:54.428Z,99.90
2022-07-25T21:51:24.681Z,99.90
2022-07-25T21:53:53.109Z,99.90
2022-07-25T21:56:23.813Z,99.90
2022-07-25T21:58:51.901Z,99.90
2022-07-25T22:01:20.989Z,99.90
2022-07-25T22:03:49.044Z,99.90
2022-07-25T22:06:17.024Z,99.90
2022-07-25T22:08:45.810Z,99.90
2022-07-25T22:11:20.854Z,99.90
2022-07-25T22:14:03.491Z,99.90
2022-07-25T22:16:31.910Z,99.90
2022-07-25T22:19:02.275Z,99.90
2022-07-25T22:21:30.851Z,99.90
2022-07-25T22:23:58.810Z,99.90
2022-07-25T22:26:26.715Z,99.90
2022-07-25T22:28:55.889Z,99.90
2022-07-25T22:31:23.777Z,99.90
2022-07-25T22:33:51.749Z,99.90
2022-07-25T22:36:20.139Z,99.90
2022-07-25T22:38:50.362Z,99.90
2022-07-25T22:41:18.909Z,99.90
2022-07-25T22:43:57.766Z,99.90
2022-07-25T22:46:28.798Z,99.90
2022-07-25T22:48:58.384Z,99.90
2022-07-25T22:51:29.129Z,99.90
2022-07-25T22:53:58.080Z,99.90
2022-07-25T22:56:27.655Z,99.90
2022-07-25T22:58:55.515Z,99.90
2022-07-25T23:01:24.879Z,99.90
2022-07-25T23:03:53.644Z,99.90
2022-07-25T23:06:22.037Z,99.90
2022-07-25T23:08:50.350Z,99.90
2022-07-25T23:11:19.662Z,99.90
2022-07-25T23:13:47.996Z,99.90
2022-07-25T23:16:16.669Z,99.90
2022-07-25T23:18:45.332Z,99.90
2022-07-25T23:21:13.576Z,99.90
2022-07-25T23:23:41.423Z,99.90
2022-07-25T23:26:10.405Z,99.90
2022-07-25T23:28:39.247Z,99.90
2022-07-25T23:31:09.287Z,99.90
2022-07-25T23:33:37.737Z,99.90
2022-07-25T23:36:06.691Z,99.90
2022-07-25T23:38:35.011Z,99.70
2022-07-25T23:41:04.054Z,99.60
2022-07-25T23:43:51.152Z,99.50
2022-07-25T23:46:21.560Z,99.40
2022-07-25T23:49:00.556Z,99.40
2022-07-25T23:51:29.137Z,99.50
2022-07-25T23:53:57.623Z,99.70
2022-07-25T23:56:28.530Z,99.90
2022-07-25T23:58:57.583Z,99.90
